createdAt,value
2023-03-22T00:01:18.843Z,8.51
2023-03-22T00:03:46.329Z,8.43
2023-03-22T00:06:13.027Z,8.40
2023-03-22T00:08:40.581Z,8.40
2023-03-22T00:11:07.432Z,8.35
2023-03-22T00:13:35.822Z,8.36
2023-03-22T00:16:02.596Z,8.36
2023-03-22T00:18:30.197Z,8.37
2023-03-22T00:20:58.450Z,8.30
2023-03-22T00:23:26.260Z,8.25
2023-03-22T00:25:52.835Z,8.19
2023-03-22T00:28:19.925Z,8.15
2023-03-22T00:31:00.925Z,8.12
2023-03-22T00:33:29.210Z,8.04
2023-03-22T00:36:00.294Z,8.00
2023-03-22T00:38:41.185Z,7.95
2023-03-22T00:41:14.456Z,7.89
2023-03-22T00:43:41.342Z,7.80
2023-03-22T00:46:09.129Z,7.71
2023-03-22T00:48:35.719Z,7.64
2023-03-22T00:51:02.568Z,7.59
2023-03-22T00:53:29.011Z,7.56
2023-03-22T00:55:56.850Z,7.50
2023-03-22T00:58:23.372Z,7.45
2023-03-22T01:00:50.424Z,7.47
2023-03-22T01:03:17.514Z,7.40
2023-03-22T01:05:46.977Z,7.33
2023-03-22T01:08:13.692Z,7.30
2023-03-22T01:10:41.339Z,7.35
2023-03-22T01:13:08.468Z,7.33
2023-03-22T01:15:35.560Z,7.33
2023-03-22T01:18:02.132Z,7.35
2023-03-22T01:20:29.390Z,7.33
2023-03-22T01:22:55.993Z,7.25
2023-03-22T01:25:22.731Z,7.18
2023-03-22T01:27:49.436Z,7.14
2023-03-22T01:30:16.179Z,7.09
2023-03-22T01:32:42.636Z,7.01
2023-03-22T01:35:09.726Z,6.97
2023-03-22T01:37:36.795Z,6.93
2023-03-22T01:40:03.714Z,6.87
2023-03-22T01:42:30.207Z,6.80
2023-03-22T01:45:14.834Z,6.77
2023-03-22T01:47:47.686Z,6.67
2023-03-22T01:50:15.568Z,6.65
2023-03-22T01:52:42.647Z,6.60
2023-03-22T01:55:09.766Z,6.55
2023-03-22T01:57:37.352Z,6.47
2023-03-22T02:00:10.878Z,6.40
2023-03-22T02:02:37.427Z,6.35
2023-03-22T02:05:04.121Z,6.33
2023-03-22T02:07:31.061Z,6.31
2023-03-22T02:09:59.255Z,6.20
2023-03-22T02:12:40.233Z,6.15
2023-03-22T02:15:17.060Z,6.07
2023-03-22T02:18:02.138Z,6.03
2023-03-22T02:20:53.465Z,5.98
2023-03-22T02:23:23.034Z,5.94
2023-03-22T02:26:17.319Z,5.87
2023-03-22T02:29:12.968Z,5.83
2023-03-22T02:32:18.517Z,5.79
2023-03-22T02:35:27.749Z,5.76
2023-03-22T02:38:16.574Z,5.79
2023-03-22T02:41:30.033Z,5.80
2023-03-22T02:44:38.286Z,5.78
2023-03-22T02:47:07.465Z,5.81
2023-03-22T02:49:52.248Z,5.75
2023-03-22T02:52:46.761Z,5.66
2023-03-22T02:55:34.593Z,5.58
2023-03-22T02:58:11.929Z,5.53
2023-03-22T03:00:40.394Z,5.53
2023-03-22T03:03:12.166Z,5.53
2023-03-22T03:05:52.972Z,5.50
2023-03-22T03:08:21.261Z,5.49
2023-03-22T03:10:49.326Z,5.46
2023-03-22T03:13:17.969Z,5.35
2023-03-22T03:15:48.780Z,5.24
2023-03-22T03:18:34.348Z,5.25
2023-03-22T03:21:31.471Z,5.22
2023-03-22T03:24:23.048Z,5.17
2023-03-22T03:26:59.741Z,5.13
2023-03-22T03:29:29.440Z,5.08
2023-03-22T03:32:05.492Z,5.05
2023-03-22T03:34:55.751Z,5.03
2023-03-22T03:37:34.057Z,5.07
2023-03-22T03:40:09.509Z,5.07
2023-03-22T03:42:39.850Z,5.00
2023-03-22T03:45:08.414Z,4.91
2023-03-22T03:47:36.320Z,4.90
2023-03-22T03:50:07.305Z,4.96
2023-03-22T03:52:34.135Z,4.89
2023-03-22T03:55:00.502Z,4.83
2023-03-22T03:57:27.249Z,4.75
2023-03-22T03:59:53.645Z,4.72
2023-03-22T04:02:20.373Z,4.70
2023-03-22T04:04:46.817Z,4.73
2023-03-22T04:07:13.296Z,4.73
2023-03-22T04:09:39.988Z,4.73
2023-03-22T04:12:06.742Z,4.72
2023-03-22T04:14:33.427Z,4.71
2023-03-22T04:16:59.966Z,4.65
2023-03-22T04:19:26.472Z,4.59
2023-03-22T04:21:53.377Z,4.56
2023-03-22T04:24:21.994Z,4.51
2023-03-22T04:26:48.794Z,4.48
2023-03-22T04:29:15.636Z,4.40
2023-03-22T04:31:42.078Z,4.37
2023-03-22T04:34:08.517Z,4.35
2023-03-22T04:36:37.718Z,4.34
2023-03-22T04:39:04.867Z,4.30
2023-03-22T04:41:32.075Z,4.26
2023-03-22T04:43:58.736Z,4.24
2023-03-22T04:46:25.289Z,4.22
2023-03-22T04:48:51.853Z,4.21
2023-03-22T04:51:18.505Z,4.24
2023-03-22T04:53:44.832Z,4.25
2023-03-22T04:56:13.031Z,4.23
2023-03-22T04:58:42.742Z,4.20
2023-03-22T05:01:10.888Z,4.16
2023-03-22T05:03:38.109Z,4.11
2023-03-22T05:06:06.986Z,4.18
2023-03-22T05:08:34.561Z,4.11
2023-03-22T05:11:07.396Z,4.08
2023-03-22T05:13:33.938Z,4.03
2023-03-22T05:16:00.368Z,3.96
2023-03-22T05:18:27.097Z,3.95
2023-03-22T05:20:56.314Z,3.90
2023-03-22T05:23:23.789Z,3.89
2023-03-22T05:25:52.358Z,3.90
2023-03-22T05:28:20.584Z,3.94
2023-03-22T05:30:49.141Z,3.95
2023-03-22T05:33:15.814Z,3.94
2023-03-22T05:35:42.991Z,3.93
2023-03-22T05:38:09.952Z,3.92
2023-03-22T05:40:36.457Z,3.97
2023-03-22T05:43:02.851Z,4.02
2023-03-22T05:45:29.263Z,4.04
2023-03-22T05:47:55.821Z,4.02
2023-03-22T05:50:23.406Z,4.04
2023-03-22T05:52:50.944Z,4.08
2023-03-22T05:55:17.909Z,4.05
2023-03-22T05:57:45.476Z,4.04
2023-03-22T06:00:14.711Z,4.03
2023-03-22T06:02:42.186Z,4.04
2023-03-22T06:05:10.183Z,4.09
2023-03-22T06:07:37.349Z,4.11
2023-03-22T06:10:05.695Z,4.13
2023-03-22T06:12:32.473Z,4.22
2023-03-22T06:14:59.546Z,4.28
2023-03-22T06:17:26.587Z,4.39
2023-03-22T06:19:53.362Z,4.44
2023-03-22T06:22:20.366Z,4.47
2023-03-22T06:24:46.979Z,4.58
2023-03-22T06:27:14.305Z,4.75
2023-03-22T06:29:40.850Z,4.91
2023-03-22T06:32:07.462Z,5.01
2023-03-22T06:34:34.441Z,5.13
2023-03-22T06:37:00.938Z,5.10
2023-03-22T06:39:27.341Z,5.14
2023-03-22T06:41:54.098Z,5.25
2023-03-22T06:44:20.459Z,5.46
2023-03-22T06:46:47.712Z,5.67
2023-03-22T06:49:14.481Z,5.63
2023-03-22T06:51:40.897Z,5.79
2023-03-22T06:54:07.406Z,5.80
2023-03-22T06:56:33.954Z,5.85
2023-03-22T06:59:00.602Z,5.87
2023-03-22T07:01:27.267Z,5.99
2023-03-22T07:03:53.843Z,6.19
2023-03-22T07:06:20.375Z,6.30
2023-03-22T07:08:46.998Z,6.56
2023-03-22T07:11:13.688Z,6.70
2023-03-22T07:13:40.255Z,6.96
2023-03-22T07:16:07.612Z,7.14
2023-03-22T07:18:34.278Z,7.26
2023-03-22T07:21:00.831Z,7.28
2023-03-22T07:23:27.401Z,7.49
2023-03-22T07:25:54.125Z,7.64
2023-03-22T07:28:20.649Z,7.70
2023-03-22T07:30:47.151Z,7.94
2023-03-22T07:33:14.245Z,8.22
2023-03-22T07:35:40.859Z,8.36
2023-03-22T07:38:08.880Z,8.71
2023-03-22T07:40:36.462Z,8.87
2023-03-22T07:43:02.878Z,8.91
2023-03-22T07:45:29.356Z,8.96
2023-03-22T07:47:55.807Z,9.03
2023-03-22T07:50:22.346Z,9.16
2023-03-22T07:52:48.760Z,9.40
2023-03-22T07:55:15.721Z,9.67
2023-03-22T07:57:42.057Z,9.94
2023-03-22T08:00:09.481Z,10.07
2023-03-22T08:02:36.384Z,10.38
2023-03-22T08:05:03.131Z,10.57
2023-03-22T08:07:29.467Z,10.59
2023-03-22T08:09:58.205Z,10.69
2023-03-22T08:12:24.758Z,10.79
2023-03-22T08:14:51.391Z,10.87
2023-03-22T08:17:18.977Z,11.00
2023-03-22T08:19:45.872Z,11.21
2023-03-22T08:22:12.798Z,11.44
2023-03-22T08:24:39.336Z,11.49
2023-03-22T08:27:05.863Z,11.46
2023-03-22T08:29:32.170Z,11.67
2023-03-22T08:31:58.745Z,12.09
2023-03-22T08:34:25.252Z,12.13
2023-03-22T08:36:51.646Z,12.38
2023-03-22T08:39:18.147Z,12.43
2023-03-22T08:41:44.506Z,12.85
2023-03-22T08:44:11.113Z,13.36
2023-03-22T08:46:38.041Z,13.24
2023-03-22T08:49:04.665Z,13.42
2023-03-22T08:51:31.093Z,13.36
2023-03-22T08:53:57.498Z,13.75
2023-03-22T08:56:24.177Z,13.85
2023-03-22T08:58:50.636Z,13.54
2023-03-22T09:01:17.657Z,14.02
2023-03-22T09:03:44.609Z,14.17
2023-03-22T09:06:11.489Z,14.73
2023-03-22T09:08:38.099Z,14.91
2023-03-22T09:11:04.915Z,14.63
2023-03-22T09:13:31.494Z,14.69
2023-03-22T09:15:58.017Z,14.55
2023-03-22T09:18:25.667Z,15.01
2023-03-22T09:20:52.452Z,14.97
2023-03-22T09:23:20.336Z,14.82
2023-03-22T09:25:48.710Z,14.69
2023-03-22T09:28:16.134Z,15.07
2023-03-22T09:30:43.046Z,15.35
2023-03-22T09:33:09.532Z,15.21
2023-03-22T09:35:36.227Z,15.30
2023-03-22T09:38:02.922Z,15.61
2023-03-22T09:40:33.010Z,16.05
2023-03-22T09:43:04.804Z,15.80
2023-03-22T09:45:46.469Z,15.96
2023-03-22T09:48:33.598Z,15.82
2023-03-22T09:51:01.392Z,16.14
2023-03-22T09:53:29.984Z,15.88
2023-03-22T09:56:18.841Z,15.94
2023-03-22T09:59:04.091Z,15.99
2023-03-22T10:01:36.329Z,16.06
2023-03-22T10:04:30.772Z,16.42
2023-03-22T10:07:12.655Z,16.75
2023-03-22T10:09:55.747Z,17.13
2023-03-22T10:12:29.865Z,17.49
2023-03-22T10:15:10.577Z,18.29
2023-03-22T10:17:39.960Z,17.91
2023-03-22T10:20:21.695Z,17.98
2023-03-22T10:22:53.222Z,17.26
2023-03-22T10:25:23.999Z,17.37
2023-03-22T10:27:51.735Z,17.40
2023-03-22T10:30:24.509Z,17.40
2023-03-22T10:33:04.901Z,17.72
2023-03-22T10:35:32.152Z,17.60
2023-03-22T10:38:02.922Z,17.47
2023-03-22T10:40:35.856Z,17.71
2023-03-22T10:43:21.377Z,17.83
2023-03-22T10:45:49.019Z,17.18
2023-03-22T10:48:32.295Z,17.97
2023-03-22T10:51:01.018Z,18.36
2023-03-22T10:53:48.444Z,18.40
2023-03-22T10:56:19.320Z,17.94
2023-03-22T10:58:47.373Z,18.18
2023-03-22T11:01:24.294Z,18.35
2023-03-22T11:03:55.196Z,18.23
2023-03-22T11:06:31.280Z,18.57
2023-03-22T11:09:10.444Z,18.24
2023-03-22T11:11:46.599Z,18.28
2023-03-22T11:14:22.955Z,18.78
2023-03-22T11:16:55.011Z,19.14
2023-03-22T11:19:49.564Z,19.29
2023-03-22T11:22:35.760Z,19.30
2023-03-22T11:25:07.130Z,19.19
2023-03-22T11:27:34.851Z,19.43
2023-03-22T11:30:22.672Z,19.46
2023-03-22T11:32:51.177Z,19.49
2023-03-22T11:35:22.078Z,18.84
2023-03-22T11:37:54.216Z,18.45
2023-03-22T11:40:27.251Z,18.92
2023-03-22T11:43:11.072Z,19.22
2023-03-22T11:45:43.764Z,19.17
2023-03-22T11:48:18.941Z,19.39
2023-03-22T11:50:46.382Z,19.32
2023-03-22T11:53:19.752Z,19.31
2023-03-22T11:55:48.636Z,19.42
2023-03-22T11:58:52.589Z,19.83
2023-03-22T12:01:34.982Z,19.18
2023-03-22T12:04:05.662Z,19.18
2023-03-22T12:06:36.295Z,19.08
2023-03-22T12:09:29.004Z,19.61
2023-03-22T12:11:57.400Z,19.88
2023-03-22T12:14:29.527Z,20.02
2023-03-22T12:17:15.820Z,19.87
2023-03-22T12:19:52.309Z,19.09
2023-03-22T12:22:27.052Z,19.13
2023-03-22T12:24:53.705Z,19.04
2023-03-22T12:27:28.672Z,19.42
2023-03-22T12:30:01.281Z,19.41
2023-03-22T12:32:39.413Z,19.25
2023-03-22T12:35:17.285Z,19.56
2023-03-22T12:37:48.618Z,19.73
2023-03-22T12:40:26.091Z,19.46
2023-03-22T12:43:26.165Z,19.81
2023-03-22T12:45:59.003Z,19.20
2023-03-22T12:48:31.777Z,19.15
2023-03-22T12:51:02.868Z,19.13
2023-03-22T12:53:35.513Z,19.45
2023-03-22T12:56:03.112Z,19.22
2023-03-22T12:58:29.506Z,19.08
2023-03-22T13:01:01.281Z,19.06
2023-03-22T13:03:49.104Z,18.87
2023-03-22T13:06:34.428Z,18.75
2023-03-22T13:09:03.373Z,19.15
2023-03-22T13:11:30.365Z,19.37
2023-03-22T13:13:56.917Z,19.08
2023-03-22T13:16:42.296Z,19.31
2023-03-22T13:19:26.177Z,19.60
2023-03-22T13:22:16.786Z,19.52
2023-03-22T13:25:01.614Z,19.35
2023-03-22T13:27:57.001Z,19.76
2023-03-22T13:30:47.225Z,19.50
2023-03-22T13:33:28.397Z,19.63
2023-03-22T13:36:07.447Z,19.69
2023-03-22T13:38:37.952Z,19.49
2023-03-22T13:41:13.874Z,19.58
2023-03-22T13:43:42.978Z,19.60
2023-03-22T13:46:09.529Z,19.83
2023-03-22T13:48:52.080Z,20.19
2023-03-22T13:51:21.325Z,20.09
2023-03-22T13:54:04.471Z,19.58
2023-03-22T13:56:33.990Z,19.64
2023-03-22T13:59:02.149Z,19.29
2023-03-22T14:01:34.583Z,19.32
2023-03-22T14:04:06.746Z,19.39
2023-03-22T14:06:42.997Z,19.27
2023-03-22T14:09:27.445Z,19.53
2023-03-22T14:12:00.627Z,19.73
2023-03-22T14:14:36.856Z,19.80
2023-03-22T14:17:15.124Z,19.85
2023-03-22T14:19:42.404Z,20.13
